Time;durP1;ratioP1;P1;durP2;ratioP2;P2;SDS_P1;SDS_P2;PMS_P1;PMS_P2;Temp;Humidity;BMP_temperature;BMP_pressure;BME280_temperature;BME280_humidity;BME280_pressure;Samples;Min_cycle;Max_cycle;Signal;HPM_P1;HPM_P2
2021/10/30 00:01:59;;;;;;;20.53;12.03;;;7.70;99.90;;;;;;5089326;28;20224;-76
2021/10/30 00:04:26;;;;;;;23.33;12.47;;;7.70;99.90;;;;;;5078028;28;20286;-76
2021/10/30 00:06:53;;;;;;;22.13;11.47;;;7.70;99.90;;;;;;5083897;28;20199;-76
2021/10/30 00:09:20;;;;;;;23.30;11.93;;;7.70;99.90;;;;;;5089871;28;20623;-77
2021/10/30 00:11:49;;;;;;;18.47;11.13;;;7.70;99.90;;;;;;5089803;28;20200;-76
2021/10/30 00:14:17;;;;;;;22.33;12.17;;;7.70;99.90;;;;;;5102313;28;20205;-76
2021/10/30 00:16:44;;;;;;;20.47;11.27;;;7.60;99.90;;;;;;5078969;28;20711;-78
2021/10/30 00:19:12;;;;;;;21.27;11.60;;;7.60;99.90;;;;;;5088092;28;20270;-77
2021/10/30 00:21:39;;;;;;;23.53;13.57;;;7.60;99.90;;;;;;5088741;28;20694;-76
2021/10/30 00:24:06;;;;;;;22.83;13.07;;;7.60;99.90;;;;;;5087931;28;20780;-76
2021/10/30 00:26:33;;;;;;;36.87;18.10;;;7.60;99.90;;;;;;5087826;28;20282;-76
2021/10/30 00:29:01;;;;;;;38.47;18.63;;;7.60;99.90;;;;;;5086660;28;20203;-76
2021/10/30 00:31:28;;;;;;;33.90;19.83;;;7.60;99.90;;;;;;5087284;28;20731;-76
2021/10/30 00:33:55;;;;;;;30.67;16.33;;;7.50;99.90;;;;;;5084225;28;20299;-76
2021/10/30 00:36:22;;;;;;;32.10;17.40;;;7.50;99.90;;;;;;5086736;28;20209;-76
2021/10/30 00:38:49;;;;;;;36.33;19.47;;;7.50;99.90;;;;;;5088684;28;20278;-76
2021/10/30 00:41:17;;;;;;;31.70;18.23;;;7.50;99.90;;;;;;5086724;28;20203;-76
2021/10/30 00:43:45;;;;;;;28.47;15.73;;;7.40;99.90;;;;;;5081872;28;20219;-76
2021/10/30 00:46:13;;;;;;;26.90;15.07;;;7.40;99.90;;;;;;5085068;28;20201;-76
2021/10/30 00:48:40;;;;;;;27.60;15.63;;;7.40;99.90;;;;;;5086891;28;20212;-76
2021/10/30 00:51:08;;;;;;;27.73;14.97;;;7.40;99.90;;;;;;5086287;28;20292;-76
2021/10/30 00:53:35;;;;;;;32.43;17.40;;;7.40;99.90;;;;;;5086743;28;20663;-76
2021/10/30 00:56:05;;;;;;;34.07;18.27;;;7.30;99.90;;;;;;5084529;28;20296;-76
2021/10/30 00:58:35;;;;;;;35.40;18.67;;;7.30;99.90;;;;;;5085470;28;20985;-76
2021/10/30 01:01:03;;;;;;;34.77;19.40;;;7.20;99.90;;;;;;5078366;28;20231;-76
2021/10/30 01:03:32;;;;;;;31.27;16.50;;;7.20;99.90;;;;;;5080596;28;20240;-76
2021/10/30 01:06:00;;;;;;;32.10;16.63;;;7.20;99.90;;;;;;5076168;28;20299;-76
2021/10/30 01:08:27;;;;;;;25.80;15.37;;;7.20;99.90;;;;;;5088169;28;20282;-76
2021/10/30 01:10:54;;;;;;;23.53;13.23;;;7.10;99.90;;;;;;5088509;28;20304;-76
2021/10/30 01:13:23;;;;;;;22.87;13.50;;;7.10;99.90;;;;;;5088744;28;20199;-76
2021/10/30 01:15:50;;;;;;;22.70;12.83;;;7.10;99.90;;;;;;5084941;28;20673;-76
2021/10/30 01:18:17;;;;;;;21.87;12.43;;;7.20;99.90;;;;;;5087909;28;20591;-76
2021/10/30 01:20:46;;;;;;;18.83;11.27;;;7.20;99.90;;;;;;5087263;28;20308;-76
2021/10/30 01:23:13;;;;;;;20.23;11.20;;;7.10;99.90;;;;;;5086703;28;20261;-76
2021/10/30 01:25:40;;;;;;;15.73;9.90;;;7.20;99.90;;;;;;5086250;28;20220;-76
2021/10/30 01:28:07;;;;;;;17.63;9.77;;;7.10;99.90;;;;;;5086446;28;20203;-76
2021/10/30 01:30:35;;;;;;;16.83;10.60;;;7.20;99.90;;;;;;5109244;27;20211;-76
2021/10/30 01:33:04;;;;;;;21.03;11.07;;;7.20;99.90;;;;;;5086532;28;20600;-76
2021/10/30 01:35:33;;;;;;;20.17;11.67;;;7.10;99.90;;;;;;5082702;28;20188;-76
2021/10/30 01:38:02;;;;;;;19.17;10.60;;;7.10;99.90;;;;;;5087617;28;20226;-76
2021/10/30 01:40:40;;;;;;;18.03;10.13;;;7.10;99.90;;;;;;5083828;28;20425;-76
2021/10/30 01:43:09;;;;;;;15.80;8.97;;;7.10;99.90;;;;;;5087956;28;20761;-76
2021/10/30 01:45:37;;;;;;;14.37;8.73;;;7.00;99.90;;;;;;5081260;28;20626;-76
2021/10/30 01:48:05;;;;;;;15.43;9.03;;;7.10;99.90;;;;;;5078521;28;20247;-76
2021/10/30 01:50:32;;;;;;;17.20;10.23;;;7.00;99.90;;;;;;5087703;28;20739;-76
2021/10/30 01:53:01;;;;;;;14.67;9.27;;;7.00;99.90;;;;;;5088204;28;20743;-76
2021/10/30 01:55:30;;;;;;;15.63;8.70;;;7.00;99.90;;;;;;5087189;28;20653;-76
2021/10/30 01:57:57;;;;;;;13.93;8.17;;;7.00;99.90;;;;;;5075222;28;20205;-76
2021/10/30 02:00:24;;;;;;;15.20;9.77;;;7.00;99.90;;;;;;5113643;27;20738;-75
2021/10/30 02:02:51;;;;;;;18.13;9.60;;;6.90;99.90;;;;;;5074524;28;20730;-75
2021/10/30 02:05:18;;;;;;;24.93;12.17;;;6.90;99.90;;;;;;5101602;28;20784;-76
2021/10/30 02:07:45;;;;;;;21.30;11.67;;;6.90;99.90;;;;;;5074285;28;20287;-76
2021/10/30 02:10:15;;;;;;;20.37;11.83;;;6.90;99.90;;;;;;5086167;28;20227;-76
2021/10/30 02:12:43;;;;;;;22.80;12.73;;;6.90;99.90;;;;;;5101368;28;20223;-76
2021/10/30 02:15:11;;;;;;;22.80;13.10;;;6.80;99.90;;;;;;5113547;27;20204;-76
2021/10/30 02:17:39;;;;;;;24.30;14.13;;;6.80;99.90;;;;;;5075439;28;20286;-76
2021/10/30 02:20:10;;;;;;;25.73;15.30;;;6.70;99.90;;;;;;5086334;28;20286;-76
2021/10/30 02:22:37;;;;;;;26.43;13.53;;;6.70;99.90;;;;;;5074986;28;20231;-76
2021/10/30 02:25:06;;;;;;;29.03;15.23;;;6.60;99.90;;;;;;5083703;28;20201;-76
2021/10/30 02:27:34;;;;;;;30.13;16.80;;;6.60;99.90;;;;;;5072727;28;20566;-76
2021/10/30 02:30:02;;;;;;;30.40;16.07;;;6.60;99.90;;;;;;5080067;28;20198;-76
2021/10/30 02:32:29;;;;;;;31.27;15.20;;;6.50;99.90;;;;;;5074395;28;20203;-76
2021/10/30 02:34:56;;;;;;;25.83;13.90;;;6.50;99.90;;;;;;5091511;28;20207;-76
2021/10/30 02:37:23;;;;;;;22.20;12.77;;;6.50;99.90;;;;;;5074015;28;20238;-76
2021/10/30 02:39:50;;;;;;;19.70;11.23;;;6.50;99.90;;;;;;5083870;28;20284;-76
2021/10/30 02:42:17;;;;;;;20.20;11.43;;;6.50;99.90;;;;;;5077453;28;20550;-76
2021/10/30 02:44:45;;;;;;;20.27;11.53;;;6.40;99.90;;;;;;5091073;28;20206;-76
2021/10/30 02:47:12;;;;;;;23.07;12.77;;;6.40;99.90;;;;;;5072938;28;20198;-76
2021/10/30 02:49:39;;;;;;;22.20;12.23;;;6.40;99.90;;;;;;5079086;28;20216;-76
2021/10/30 02:52:07;;;;;;;23.20;12.23;;;6.40;99.90;;;;;;5081522;28;20539;-76
2021/10/30 02:54:34;;;;;;;24.17;12.97;;;6.40;99.90;;;;;;5118173;27;20654;-76
2021/10/30 02:57:01;;;;;;;24.43;13.83;;;6.40;99.90;;;;;;5081635;28;20226;-76
2021/10/30 02:59:28;;;;;;;25.83;14.23;;;6.30;99.90;;;;;;5090128;28;20208;-76
2021/10/30 03:01:57;;;;;;;27.93;14.03;;;6.30;99.90;;;;;;5083957;28;20184;-76
2021/10/30 03:04:24;;;;;;;23.53;12.90;;;6.30;99.90;;;;;;5087570;28;20714;-76
2021/10/30 03:06:51;;;;;;;21.60;11.30;;;6.30;99.90;;;;;;5090648;28;20202;-76
2021/10/30 03:09:18;;;;;;;17.43;10.23;;;6.30;99.90;;;;;;5088988;28;20205;-77
2021/10/30 03:11:45;;;;;;;17.27;9.60;;;6.30;99.90;;;;;;5091434;28;20274;-76
2021/10/30 03:14:12;;;;;;;17.43;10.30;;;6.30;99.90;;;;;;5110843;27;20209;-76
2021/10/30 03:16:40;;;;;;;20.23;11.10;;;6.30;99.90;;;;;;5089826;28;20205;-76
2021/10/30 03:19:08;;;;;;;17.53;10.03;;;6.30;99.90;;;;;;5087180;28;20289;-76
2021/10/30 03:21:35;;;;;;;20.50;11.60;;;6.30;99.90;;;;;;5087371;28;20222;-76
2021/10/30 03:24:02;;;;;;;24.27;12.03;;;6.30;99.90;;;;;;5087539;28;20195;-76
2021/10/30 03:26:29;;;;;;;34.20;16.00;;;6.30;99.90;;;;;;5089176;28;20205;-76
2021/10/30 03:28:56;;;;;;;35.67;17.57;;;6.30;99.90;;;;;;5088315;28;20203;-76
2021/10/30 03:31:23;;;;;;;35.90;17.57;;;6.20;99.90;;;;;;5088682;28;20600;-76
2021/10/30 03:33:50;;;;;;;32.70;16.10;;;6.20;99.90;;;;;;5089194;28;20206;-76
2021/10/30 03:36:18;;;;;;;30.60;15.57;;;6.10;99.90;;;;;;5085816;28;20191;-76
2021/10/30 03:38:45;;;;;;;33.40;16.10;;;6.10;99.90;;;;;;5087909;28;20222;-76
2021/10/30 03:41:13;;;;;;;34.10;17.97;;;6.10;99.90;;;;;;5087580;28;20258;-76
2021/10/30 03:43:40;;;;;;;28.73;16.07;;;6.10;99.90;;;;;;5083775;28;20300;-76
2021/10/30 03:46:07;;;;;;;29.53;15.40;;;6.10;99.90;;;;;;5085811;28;20213;-76
2021/10/30 03:48:34;;;;;;;27.00;14.10;;;6.00;99.90;;;;;;5083027;28;20530;-76
2021/10/30 03:51:01;;;;;;;26.60;14.90;;;6.10;99.90;;;;;;5086385;28;20521;-76
2021/10/30 03:53:29;;;;;;;29.50;14.57;;;6.00;99.90;;;;;;5087682;28;20230;-76
2021/10/30 03:55:56;;;;;;;31.63;17.23;;;6.10;99.90;;;;;;5106405;27;20209;-76
2021/10/30 03:58:23;;;;;;;29.27;15.97;;;6.00;99.90;;;;;;5079743;28;20233;-76
2021/10/30 04:00:50;;;;;;;27.33;14.13;;;6.00;99.90;;;;;;5080459;28;20199;-76
2021/10/30 04:03:17;;;;;;;21.93;13.17;;;6.00;99.90;;;;;;5086952;28;20229;-75
2021/10/30 04:05:44;;;;;;;19.33;10.87;;;6.00;99.90;;;;;;5086287;28;20201;-77
2021/10/30 04:08:13;;;;;;;19.27;10.63;;;6.10;99.90;;;;;;5089790;28;20196;-76
2021/10/30 04:10:43;;;;;;;19.97;11.20;;;6.10;99.90;;;;;;5108999;27;20206;-76
2021/10/30 04:13:10;;;;;;;18.03;9.90;;;6.10;99.90;;;;;;5089463;28;20197;-76
2021/10/30 04:15:38;;;;;;;19.83;10.90;;;6.10;99.90;;;;;;5087906;28;20193;-76
2021/10/30 04:18:08;;;;;;;18.13;10.57;;;6.00;99.90;;;;;;5089314;28;20212;-76
2021/10/30 04:20:35;;;;;;;15.37;9.43;;;6.00;99.90;;;;;;5086253;28;20198;-76
2021/10/30 04:23:02;;;;;;;19.23;9.63;;;6.00;99.90;;;;;;5088796;28;20262;-76
2021/10/30 04:25:29;;;;;;;15.57;9.33;;;6.00;99.90;;;;;;5087270;28;20222;-76
2021/10/30 04:27:57;;;;;;;17.93;9.77;;;6.00;99.90;;;;;;5087176;28;20293;-76
2021/10/30 04:30:24;;;;;;;17.57;10.17;;;6.00;99.90;;;;;;5085014;28;20211;-76
2021/10/30 04:32:51;;;;;;;19.90;10.40;;;6.00;99.90;;;;;;5087439;28;20292;-77
2021/10/30 04:35:18;;;;;;;18.67;10.73;;;6.00;99.90;;;;;;5083823;28;20259;-76
2021/10/30 04:37:46;;;;;;;20.57;10.47;;;5.90;99.90;;;;;;5086320;28;20299;-76
2021/10/30 04:40:13;;;;;;;18.20;10.63;;;5.90;99.90;;;;;;5082040;28;20193;-76
2021/10/30 04:42:40;;;;;;;16.30;9.67;;;5.90;99.90;;;;;;5085890;28;20295;-76
2021/10/30 04:45:09;;;;;;;18.10;10.27;;;5.90;99.90;;;;;;5080902;28;20253;-76
2021/10/30 04:47:36;;;;;;;16.17;9.53;;;5.90;99.90;;;;;;5085957;28;20494;-76
2021/10/30 04:50:04;;;;;;;16.93;9.13;;;5.90;99.90;;;;;;5105601;27;20228;-76
2021/10/30 04:52:32;;;;;;;16.23;8.50;;;5.90;99.90;;;;;;5082923;28;20489;-76
2021/10/30 04:54:59;;;;;;;17.63;9.80;;;5.90;99.90;;;;;;5081357;28;20203;-76
2021/10/30 04:57:26;;;;;;;17.07;8.87;;;5.90;99.90;;;;;;5081861;28;20676;-76
2021/10/30 04:59:53;;;;;;;17.07;9.60;;;5.90;99.90;;;;;;5078639;28;20308;-75
2021/10/30 05:02:21;;;;;;;27.07;10.43;;;5.90;99.90;;;;;;5080502;28;20203;-77
2021/10/30 05:04:48;;;;;;;15.63;8.77;;;5.90;99.90;;;;;;5076921;28;20314;-76
2021/10/30 05:07:15;;;;;;;13.93;7.20;;;5.90;99.90;;;;;;5084032;28;20649;-76
2021/10/30 05:09:42;;;;;;;18.93;9.87;;;5.90;99.90;;;;;;5087251;28;20564;-76
2021/10/30 05:12:10;;;;;;;18.93;9.60;;;5.90;99.90;;;;;;5086300;28;20737;-76
2021/10/30 05:14:37;;;;;;;24.17;11.77;;;5.90;99.90;;;;;;5086811;28;20622;-76
2021/10/30 05:17:05;;;;;;;25.40;11.67;;;5.90;99.90;;;;;;5087761;28;20264;-76
2021/10/30 05:19:33;;;;;;;25.70;12.67;;;5.90;99.90;;;;;;5086016;28;20322;-76
2021/10/30 05:22:00;;;;;;;24.87;12.97;;;5.90;99.90;;;;;;5085728;28;20276;-76
2021/10/30 05:24:27;;;;;;;26.07;13.00;;;5.90;99.90;;;;;;5088374;28;20287;-76
2021/10/30 05:26:54;;;;;;;26.60;12.60;;;5.90;99.90;;;;;;5088250;28;20205;-77
2021/10/30 05:29:21;;;;;;;27.33;12.97;;;5.90;99.90;;;;;;5087185;28;20291;-76
2021/10/30 05:31:47;;;;;;;22.13;11.83;;;5.90;99.90;;;;;;5087187;28;20571;-76
2021/10/30 05:34:14;;;;;;;20.63;11.37;;;5.90;99.90;;;;;;5088491;28;20250;-76
2021/10/30 05:37:01;;;;;;;33.07;16.03;;;5.90;99.90;;;;;;5082768;28;20215;-76
2021/10/30 05:39:37;;;;;;;34.97;17.40;;;5.90;99.90;;;;;;5085344;28;20232;-76
2021/10/30 05:42:05;;;;;;;37.93;18.07;;;5.80;99.90;;;;;;5085769;28;20219;-76
2021/10/30 05:44:34;;;;;;;38.40;17.33;;;5.80;99.90;;;;;;5083422;28;20197;-76
2021/10/30 05:47:01;;;;;;;33.00;16.53;;;5.80;99.90;;;;;;5087709;28;20764;-77
2021/10/30 05:49:28;;;;;;;34.23;14.67;;;5.80;99.90;;;;;;5084656;28;20288;-77
2021/10/30 05:51:55;;;;;;;25.93;13.50;;;5.90;99.90;;;;;;5080710;28;20204;-76
2021/10/30 05:54:23;;;;;;;24.03;12.30;;;5.90;99.90;;;;;;5079116;28;20212;-76
2021/10/30 05:56:51;;;;;;;23.37;11.63;;;5.90;99.90;;;;;;5079548;28;20246;-76
2021/10/30 05:59:18;;;;;;;20.30;10.77;;;5.40;99.90;;;;;;5086463;28;20224;-76
2021/10/30 06:01:45;;;;;;;19.60;10.73;;;6.00;99.90;;;;;;5080979;28;20589;-76
2021/10/30 06:04:12;;;;;;;17.53;9.80;;;6.00;99.90;;;;;;5083955;28;20231;-77
2021/10/30 06:06:39;;;;;;;21.07;10.67;;;6.00;99.90;;;;;;5087685;28;20572;-76
2021/10/30 06:09:07;;;;;;;17.27;9.43;;;6.10;99.90;;;;;;5086379;28;20585;-76
2021/10/30 06:11:35;;;;;;;17.07;9.20;;;6.10;99.90;;;;;;5087167;28;20215;-76
2021/10/30 06:14:03;;;;;;;15.50;9.03;;;6.10;99.90;;;;;;5084415;28;20202;-76
2021/10/30 06:16:33;;;;;;;18.13;10.13;;;6.10;99.90;;;;;;5087148;28;20325;-76
2021/10/30 06:19:00;;;;;;;18.03;9.70;;;6.10;99.90;;;;;;5106723;27;20221;-76
2021/10/30 06:21:27;;;;;;;20.33;10.80;;;6.10;99.90;;;;;;5078361;28;20296;-76
2021/10/30 06:23:58;;;;;;;22.77;10.87;;;6.10;99.90;;;;;;5084621;28;20201;-76
2021/10/30 06:26:25;;;;;;;21.83;11.07;;;6.10;99.90;;;;;;5087043;28;20208;-75
2021/10/30 06:28:55;;;;;;;23.23;10.10;;;6.20;99.90;;;;;;5080316;28;20193;-76
2021/10/30 06:31:23;;;;;;;22.10;10.80;;;6.20;99.90;;;;;;5081654;28;20700;-76
2021/10/30 06:33:50;;;;;;;24.00;11.57;;;6.20;99.90;;;;;;5084100;28;20259;-76
2021/10/30 06:36:17;;;;;;;22.23;11.13;;;6.20;99.90;;;;;;5082352;28;20704;-75
2021/10/30 06:38:45;;;;;;;22.80;10.53;;;6.20;99.90;;;;;;5078735;28;20249;-76
2021/10/30 06:41:13;;;;;;;26.00;12.43;;;6.30;99.90;;;;;;5085396;28;20654;-76
2021/10/30 06:43:41;;;;;;;25.77;12.13;;;6.30;99.90;;;;;;5083240;28;20753;-75
2021/10/30 06:46:09;;;;;;;24.67;11.33;;;6.30;99.90;;;;;;5079373;28;20231;-75
2021/10/30 06:48:37;;;;;;;18.43;9.73;;;6.30;99.90;;;;;;5083348;28;20202;-76
2021/10/30 06:51:05;;;;;;;19.57;10.23;;;6.40;99.90;;;;;;5084318;28;20206;-77
2021/10/30 06:53:32;;;;;;;17.10;9.57;;;6.40;99.90;;;;;;5077298;28;20203;-77
2021/10/30 06:56:00;;;;;;;18.93;10.70;;;6.40;99.90;;;;;;5083405;28;20288;-76
2021/10/30 06:58:28;;;;;;;23.67;11.23;;;6.50;99.90;;;;;;5081966;28;20227;-76
2021/10/30 07:00:55;;;;;;;24.03;10.87;;;6.60;99.90;;;;;;5075151;28;20639;-76
2021/10/30 07:03:24;;;;;;;20.83;10.93;;;6.60;99.90;;;;;;5081080;28;20323;-76
2021/10/30 07:05:51;;;;;;;18.03;9.63;;;6.70;99.90;;;;;;5073768;28;20195;-76
2021/10/30 07:08:18;;;;;;;27.43;11.47;;;6.70;99.90;;;;;;5087116;28;20198;-76
2021/10/30 07:10:45;;;;;;;27.73;13.07;;;6.80;99.90;;;;;;5085175;28;20261;-77
2021/10/30 07:13:12;;;;;;;24.17;12.30;;;6.90;99.90;;;;;;5085372;28;20694;-77
2021/10/30 07:15:39;;;;;;;20.03;11.07;;;7.20;99.90;;;;;;5085605;28;20580;-77
2021/10/30 07:18:06;;;;;;;20.23;10.47;;;7.90;99.90;;;;;;5087293;28;20501;-77
2021/10/30 07:20:35;;;;;;;18.13;9.87;;;8.70;99.90;;;;;;5089185;28;20204;-77
2021/10/30 07:23:02;;;;;;;19.13;10.70;;;9.40;99.90;;;;;;5088349;28;20284;-77
2021/10/30 07:25:29;;;;;;;22.73;11.10;;;9.80;99.90;;;;;;5089682;28;20200;-77
2021/10/30 07:27:56;;;;;;;19.83;10.83;;;9.80;99.90;;;;;;5090556;28;20209;-76
2021/10/30 07:30:23;;;;;;;20.00;10.80;;;9.70;99.90;;;;;;5081704;28;20287;-77
2021/10/30 07:32:53;;;;;;;20.27;10.73;;;9.60;99.90;;;;;;5086990;28;20272;-77
2021/10/30 07:35:20;;;;;;;22.23;11.37;;;9.40;99.90;;;;;;5087136;28;20206;-76
2021/10/30 07:37:49;;;;;;;24.77;12.23;;;9.30;99.90;;;;;;5089782;28;20219;-76
2021/10/30 07:40:17;;;;;;;24.73;12.80;;;9.20;99.90;;;;;;5086262;28;20227;-75
2021/10/30 07:42:44;;;;;;;21.13;11.63;;;9.10;99.90;;;;;;5088526;28;20224;-76
2021/10/30 07:45:11;;;;;;;18.67;10.73;;;9.00;99.90;;;;;;5085940;28;20192;-76
2021/10/30 07:47:39;;;;;;;20.63;11.73;;;9.00;99.90;;;;;;5088699;28;20291;-76
2021/10/30 07:50:07;;;;;;;21.67;12.50;;;9.00;99.90;;;;;;5086558;28;20681;-76
2021/10/30 07:52:34;;;;;;;20.67;11.63;;;9.00;99.90;;;;;;5087616;28;20211;-76
2021/10/30 07:55:03;;;;;;;24.17;12.07;;;9.00;99.90;;;;;;5080899;28;20718;-76
2021/10/30 07:57:30;;;;;;;16.50;9.63;;;9.00;99.90;;;;;;5080271;28;20236;-76
2021/10/30 07:59:57;;;;;;;17.20;9.90;;;9.00;99.90;;;;;;5080943;28;20217;-77
2021/10/30 08:02:24;;;;;;;18.43;10.93;;;9.10;99.90;;;;;;5080001;28;20281;-77
2021/10/30 08:04:51;;;;;;;19.93;10.87;;;9.20;99.90;;;;;;5077102;28;20231;-76
2021/10/30 08:07:18;;;;;;;19.57;10.87;;;9.30;99.90;;;;;;5087248;28;20283;-76
2021/10/30 08:09:46;;;;;;;18.00;10.20;;;9.30;99.90;;;;;;5089697;28;20671;-76
2021/10/30 08:12:15;;;;;;;17.77;9.37;;;9.30;99.90;;;;;;5088656;28;20226;-76
2021/10/30 08:14:43;;;;;;;19.40;10.93;;;9.40;99.90;;;;;;5089474;28;20231;-76
2021/10/30 08:17:10;;;;;;;17.10;10.03;;;9.50;99.90;;;;;;5088959;28;20221;-76
2021/10/30 08:19:37;;;;;;;19.60;10.23;;;9.60;99.90;;;;;;5089533;28;20210;-76
2021/10/30 08:22:07;;;;;;;16.60;10.00;;;9.60;99.90;;;;;;5087498;28;20197;-76
2021/10/30 08:24:34;;;;;;;17.97;9.57;;;9.70;99.90;;;;;;5087738;28;20197;-76
2021/10/30 08:27:01;;;;;;;14.40;8.43;;;9.90;99.90;;;;;;5089307;28;20204;-76
2021/10/30 08:29:29;;;;;;;13.20;8.50;;;10.00;99.90;;;;;;5088447;28;20744;-77
2021/10/30 08:31:56;;;;;;;17.83;9.47;;;10.10;99.90;;;;;;5083811;28;20211;-76
2021/10/30 08:34:23;;;;;;;16.80;9.33;;;10.20;99.90;;;;;;5088821;28;20214;-76
2021/10/30 08:36:50;;;;;;;13.77;8.83;;;10.30;99.90;;;;;;5080491;28;20201;-76
2021/10/30 08:39:17;;;;;;;18.27;10.73;;;10.50;99.90;;;;;;5084095;28;20382;-76
2021/10/30 08:41:44;;;;;;;19.37;10.40;;;10.60;99.90;;;;;;5079385;28;20273;-76
2021/10/30 08:44:11;;;;;;;18.90;10.37;;;10.70;99.90;;;;;;5088092;28;20204;-76
2021/10/30 08:46:40;;;;;;;20.37;11.60;;;10.90;99.90;;;;;;5083497;28;20212;-76
2021/10/30 08:49:10;;;;;;;16.53;10.13;;;11.20;99.90;;;;;;5088184;28;20202;-76
2021/10/30 08:51:40;;;;;;;12.93;8.43;;;11.60;99.90;;;;;;5077822;28;20208;-76
2021/10/30 08:54:07;;;;;;;18.67;11.00;;;12.20;99.90;;;;;;5081516;28;20702;-77
2021/10/30 08:56:34;;;;;;;17.93;9.70;;;13.00;99.90;;;;;;5078245;28;20286;-77
2021/10/30 08:59:02;;;;;;;13.60;7.90;;;13.80;99.90;;;;;;5086238;28;20800;-76
2021/10/30 09:01:29;;;;;;;12.93;9.07;;;14.80;99.10;;;;;;5110504;27;20301;-76
2021/10/30 09:04:01;;;;;;;16.00;9.60;;;15.70;97.80;;;;;;5081324;28;20721;-77
2021/10/30 09:06:37;;;;;;;13.07;8.20;;;16.40;95.20;;;;;;5090322;28;20230;-78
2021/10/30 09:09:16;;;;;;;14.63;8.30;;;16.70;94.30;;;;;;5087534;28;20202;-77
2021/10/30 09:11:52;;;;;;;14.67;8.60;;;17.00;93.00;;;;;;5088644;28;20545;-78
2021/10/30 09:14:20;;;;;;;14.57;8.57;;;17.50;92.20;;;;;;5085825;28;20235;-77
2021/10/30 09:17:15;;;;;;;14.67;8.50;;;18.40;90.90;;;;;;5087297;28;20189;-78
2021/10/30 09:19:46;;;;;;;13.17;8.00;;;19.40;86.90;;;;;;5081371;28;20216;-78
2021/10/30 09:22:14;;;;;;;13.83;8.00;;;20.40;82.60;;;;;;5087698;28;20205;-77
2021/10/30 09:24:58;;;;;;;12.23;7.18;;;21.20;79.90;;;;;;5088248;28;20517;-78
2021/10/30 09:27:47;;;;;;;13.45;8.15;;;22.00;76.20;;;;;;5098584;28;20220;-77
2021/10/30 09:30:15;;;;;;;9.73;7.00;;;22.80;72.90;;;;;;5082135;28;20193;-78
2021/10/30 09:32:42;;;;;;;9.00;6.35;;;23.30;69.50;;;;;;5084222;28;20687;-77
2021/10/30 09:35:21;;;;;;;13.65;7.47;;;23.90;68.50;;;;;;5080174;28;20560;-76
2021/10/30 09:37:48;;;;;;;10.07;7.68;;;24.40;65.70;;;;;;5088197;28;20295;-77
2021/10/30 09:40:23;;;;;;;8.90;6.72;;;24.90;62.80;;;;;;5081132;28;20303;-77
2021/10/30 09:42:53;;;;;;;11.40;7.05;;;24.70;61.50;;;;;;5084773;28;20223;-77
2021/10/30 09:45:20;;;;;;;9.35;6.90;;;24.00;61.20;;;;;;5085549;28;20265;-77
2021/10/30 09:48:02;;;;;;;13.07;7.43;;;23.30;61.60;;;;;;5080777;28;20209;-77
2021/10/30 09:50:32;;;;;;;12.65;8.50;;;22.70;61.30;;;;;;5083625;28;20272;-77
2021/10/30 09:53:00;;;;;;;9.95;7.43;;;22.20;61.10;;;;;;5087873;28;20692;-77
2021/10/30 09:55:28;;;;;;;11.30;7.40;;;22.00;61.70;;;;;;5075757;28;20671;-76
2021/10/30 09:58:00;;;;;;;8.57;6.90;;;22.50;60.80;;;;;;5076683;28;20676;-76
2021/10/30 10:00:27;;;;;;;8.68;6.88;;;23.30;59.80;;;;;;5073486;28;20581;-77
2021/10/30 10:02:58;;;;;;;10.27;7.70;;;23.90;58.40;;;;;;5076250;28;20220;-77
2021/10/30 10:05:28;;;;;;;9.57;7.35;;;24.50;57.10;;;;;;5072572;28;20205;-77
2021/10/30 10:07:58;;;;;;;11.63;8.27;;;25.10;56.20;;;;;;5088471;28;20200;-77
2021/10/30 10:10:25;;;;;;;9.65;7.13;;;25.60;54.50;;;;;;5086148;28;20200;-77
2021/10/30 10:12:55;;;;;;;7.28;6.53;;;25.90;53.70;;;;;;5087301;28;20204;-77
2021/10/30 10:15:22;;;;;;;10.50;7.47;;;26.30;52.80;;;;;;5084028;28;20258;-77
2021/10/30 10:17:51;;;;;;;8.00;6.78;;;26.60;51.30;;;;;;5087828;28;20248;-77
2021/10/30 10:20:18;;;;;;;9.70;6.97;;;26.90;50.90;;;;;;5086677;28;20217;-77
2021/10/30 10:22:46;;;;;;;9.65;7.05;;;27.10;50.50;;;;;;5084911;28;20200;-77
2021/10/30 10:25:34;;;;;;;11.07;8.43;;;27.30;49.60;;;;;;5082764;28;20280;-77
2021/10/30 10:28:25;;;;;;;9.93;7.63;;;27.40;49.00;;;;;;5086963;28;20295;-77
2021/10/30 10:31:10;;;;;;;10.27;7.40;;;27.50;47.50;;;;;;5073919;28;20201;-77
2021/10/30 10:33:38;;;;;;;8.70;7.25;;;27.60;47.30;;;;;;5086388;28;20572;-77
2021/10/30 10:36:25;;;;;;;8.85;6.47;;;27.70;46.80;;;;;;5085051;28;20216;-77
2021/10/30 10:39:14;;;;;;;9.90;7.25;;;27.70;47.20;;;;;;5094537;28;20304;-77
2021/10/30 10:41:59;;;;;;;8.32;6.93;;;27.80;46.50;;;;;;5047762;28;20584;-77
2021/10/30 10:45:06;;;;;;;9.27;7.20;;;27.90;46.00;;;;;;5034564;28;20215;-77
2021/10/30 10:48:06;;;;;;;9.70;7.20;;;27.90;45.80;;;;;;5052504;28;20292;-77
2021/10/30 10:50:44;;;;;;;11.85;8.90;;;28.10;45.80;;;;;;5047932;28;20246;-77
2021/10/30 10:53:24;;;;;;;10.20;8.07;;;28.00;44.90;;;;;;5052570;28;20622;-77
2021/10/30 10:56:19;;;;;;;8.68;7.10;;;27.60;44.40;;;;;;5045027;28;20202;-78
2021/10/30 10:59:15;;;;;;;8.43;6.63;;;27.40;45.00;;;;;;5062304;28;20208;-77
2021/10/30 11:02:05;;;;;;;10.50;7.55;;;27.00;44.80;;;;;;5043621;28;20304;-76
2021/10/30 11:04:32;;;;;;;9.15;6.72;;;26.10;45.10;;;;;;5032694;28;20234;-76
2021/10/30 11:07:20;;;;;;;12.15;8.20;;;25.20;46.10;;;;;;5050347;28;20542;-76
2021/10/30 11:09:55;;;;;;;8.73;6.88;;;24.40;46.30;;;;;;4999472;28;20214;-76
2021/10/30 11:12:26;;;;;;;9.48;6.53;;;23.70;47.10;;;;;;4989787;28;20672;-76
2021/10/30 11:15:10;;;;;;;8.38;6.65;;;23.00;47.80;;;;;;4989560;28;20244;-76
2021/10/30 11:17:43;;;;;;;9.35;6.03;;;22.50;48.50;;;;;;4983885;28;20241;-75
2021/10/30 11:20:12;;;;;;;9.63;6.70;;;22.10;49.10;;;;;;5025616;28;20238;-76
2021/10/30 11:22:54;;;;;;;9.20;6.65;;;21.70;49.60;;;;;;5027692;28;20230;-75
2021/10/30 11:25:21;;;;;;;9.63;7.00;;;21.20;50.00;;;;;;5005817;28;20253;-76
2021/10/30 11:27:52;;;;;;;8.80;6.57;;;20.90;50.60;;;;;;5006232;28;20308;-76
2021/10/30 11:30:35;;;;;;;12.32;8.57;;;20.60;51.10;;;;;;5007424;28;20203;-76
2021/10/30 11:33:20;;;;;;;13.55;8.63;;;20.30;51.40;;;;;;5005672;28;20222;-77
2021/10/30 11:35:58;;;;;;;11.18;7.78;;;19.90;51.80;;;;;;5016066;28;20206;-76
2021/10/30 11:38:26;;;;;;;12.10;7.78;;;19.60;52.30;;;;;;5003994;28;20656;-76
2021/10/30 11:40:57;;;;;;;11.65;7.72;;;19.40;52.70;;;;;;5004223;28;20257;-76
2021/10/30 11:43:26;;;;;;;12.60;7.82;;;19.20;53.10;;;;;;5031960;28;20245;-76
2021/10/30 11:45:57;;;;;;;15.10;9.00;;;19.00;53.40;;;;;;5032909;28;20198;-76
2021/10/30 11:48:34;;;;;;;12.07;8.73;;;18.80;53.80;;;;;;5112910;27;20316;-76
2021/10/30 11:51:01;;;;;;;10.57;7.70;;;18.60;54.20;;;;;;5086898;28;20197;-76
2021/10/30 11:53:30;;;;;;;15.18;7.93;;;18.40;54.60;;;;;;5081938;28;20201;-76
2021/10/30 11:56:00;;;;;;;11.18;7.25;;;18.20;54.90;;;;;;5085238;28;20201;-76
2021/10/30 11:58:35;;;;;;;10.30;7.80;;;18.10;55.10;;;;;;5086895;28;20204;-76
2021/10/30 12:04:00;;;;;;;10.75;7.55;;;17.90;55.40;;;;;;5088222;27;1274471;-75
2021/10/30 12:06:28;;;;;;;13.73;8.45;;;17.70;56.10;;;;;;5116133;28;20210;-75
2021/10/30 12:08:56;;;;;;;12.63;8.38;;;17.50;56.50;;;;;;5094560;28;20214;-75
2021/10/30 12:11:24;;;;;;;11.85;8.23;;;17.40;56.80;;;;;;5098220;28;20294;-75
2021/10/30 12:13:52;;;;;;;13.07;8.88;;;17.20;57.10;;;;;;5100535;28;20202;-76
2021/10/30 12:16:19;;;;;;;10.38;7.25;;;17.10;57.50;;;;;;5098141;28;20203;-76
2021/10/30 12:18:46;;;;;;;10.95;7.55;;;17.00;57.70;;;;;;5113215;28;20270;-76
2021/10/30 12:21:15;;;;;;;11.57;7.55;;;16.90;58.00;;;;;;5127228;28;20206;-76
2021/10/30 12:23:57;;;;;;;9.35;6.75;;;16.80;58.20;;;;;;5112193;28;20218;-76
2021/10/30 12:26:25;;;;;;;11.35;7.68;;;16.80;58.50;;;;;;5094614;28;20206;-76
2021/10/30 12:28:52;;;;;;;11.67;7.10;;;16.60;58.70;;;;;;5118911;28;20553;-77
2021/10/30 12:31:30;;;;;;;12.23;7.70;;;16.60;59.00;;;;;;5100820;28;20681;-76
2021/10/30 12:33:59;;;;;;;11.27;7.90;;;16.50;59.20;;;;;;5114992;28;20648;-76
2021/10/30 12:36:29;;;;;;;9.47;6.97;;;16.40;59.50;;;;;;5104785;28;20629;-77
2021/10/30 12:38:59;;;;;;;11.13;7.40;;;16.40;59.80;;;;;;5115516;28;20199;-76
2021/10/30 12:41:32;;;;;;;14.23;8.57;;;16.30;60.10;;;;;;5112878;28;20197;-76
2021/10/30 12:44:02;;;;;;;11.70;7.30;;;16.30;60.50;;;;;;5106447;28;20477;-76
2021/10/30 12:46:50;;;;;;;8.87;6.10;;;16.20;60.60;;;;;;5106187;28;20206;-76
2021/10/30 12:49:22;;;;;;;8.13;6.03;;;16.20;60.80;;;;;;5089489;28;20850;-76
2021/10/30 12:51:58;;;;;;;11.67;6.40;;;16.20;61.00;;;;;;5098924;28;20623;-76
2021/10/30 12:54:26;;;;;;;8.07;5.80;;;16.20;61.20;;;;;;5099545;28;20286;-76